createdAt,value
2022-08-22T00:00:13.330Z,10.68
2022-08-22T00:02:48.934Z,8.68
2022-08-22T00:02:59.906Z,9.70
2022-08-22T00:03:08.536Z,8.13
2022-08-22T00:03:15.114Z,9.43
2022-08-22T00:05:39.156Z,8.18
2022-08-22T00:08:09.827Z,8.38
2022-08-22T00:10:45.086Z,7.57
2022-08-22T00:13:16.549Z,10.73
2022-08-22T00:15:49.523Z,8.23
2022-08-22T00:18:21.578Z,7.80
2022-08-22T00:20:53.099Z,8.27
2022-08-22T00:23:26.010Z,7.88
2022-08-22T00:25:59.504Z,9.07
2022-08-22T00:28:31.037Z,8.95
2022-08-22T00:31:02.922Z,8.82
2022-08-22T00:33:36.376Z,10.32
2022-08-22T00:36:08.906Z,7.30
2022-08-22T00:38:39.650Z,8.48
2022-08-22T00:41:10.515Z,7.35
2022-08-22T00:43:57.294Z,8.20
2022-08-22T00:46:34.649Z,7.10
2022-08-22T00:49:31.192Z,10.88
2022-08-22T00:52:32.331Z,8.05
2022-08-22T00:55:08.135Z,8.93
2022-08-22T00:57:42.237Z,9.65
2022-08-22T01:00:14.143Z,9.43
2022-08-22T01:02:52.852Z,8.60
2022-08-22T01:05:31.517Z,8.35
2022-08-22T01:08:06.212Z,7.85
2022-08-22T01:10:40.723Z,9.43
2022-08-22T01:13:20.529Z,8.45
2022-08-22T01:15:49.343Z,9.25
2022-08-22T01:18:32.228Z,7.78
2022-08-22T01:21:24.360Z,10.65
2022-08-22T01:24:07.379Z,9.63
2022-08-22T01:26:50.790Z,9.00
2022-08-22T01:29:46.061Z,9.50
2022-08-22T01:32:35.122Z,8.05
2022-08-22T01:35:15.659Z,8.15
2022-08-22T01:38:02.357Z,11.20
2022-08-22T01:40:53.540Z,6.53
2022-08-22T01:43:59.216Z,8.38
2022-08-22T01:46:26.305Z,8.55
2022-08-22T01:48:56.784Z,6.88
2022-08-22T01:51:29.504Z,8.95
2022-08-22T01:54:01.654Z,9.43
2022-08-22T01:56:33.675Z,8.05
2022-08-22T01:59:02.951Z,9.60
2022-08-22T02:01:37.634Z,8.65
2022-08-22T02:04:08.670Z,9.27
2022-08-22T02:06:43.249Z,8.27
2022-08-22T02:09:14.041Z,9.75
2022-08-22T02:11:47.876Z,9.13
2022-08-22T02:14:22.281Z,9.68
2022-08-22T02:16:53.564Z,8.27
2022-08-22T02:19:29.877Z,9.88
2022-08-22T02:24:29.395Z,8.50
2022-08-22T02:27:06.297Z,8.45
2022-08-22T02:29:36.927Z,8.95
2022-08-22T02:32:07.973Z,7.88
2022-08-22T02:34:39.596Z,9.55
2022-08-22T02:37:11.788Z,9.15
2022-08-22T02:39:46.382Z,9.77
2022-08-22T02:42:18.329Z,10.52
2022-08-22T02:44:52.897Z,8.93
2022-08-22T02:47:27.533Z,10.18
2022-08-22T02:49:58.765Z,10.43
2022-08-22T02:52:29.218Z,9.57
2022-08-22T02:55:02.010Z,9.10
2022-08-22T02:57:39.386Z,11.68
2022-08-22T03:00:29.706Z,8.40
2022-08-22T03:03:03.454Z,10.13
2022-08-22T03:05:50.220Z,10.27
2022-08-22T03:08:21.789Z,9.23
2022-08-22T03:10:57.123Z,8.40
2022-08-22T03:13:27.068Z,10.18
2022-08-22T03:15:57.740Z,10.77
2022-08-22T03:18:27.193Z,8.75
2022-08-22T03:21:00.034Z,9.25
2022-08-22T03:23:32.349Z,11.23
2022-08-22T03:26:07.798Z,10.77
2022-08-22T03:28:39.789Z,9.33
2022-08-22T03:31:28.370Z,10.63
2022-08-22T03:34:15.024Z,14.10
2022-08-22T03:36:47.188Z,10.52
2022-08-22T03:39:19.365Z,11.27
2022-08-22T03:42:04.483Z,10.68
2022-08-22T03:44:56.333Z,10.27
2022-08-22T03:47:33.288Z,10.50
2022-08-22T03:50:19.426Z,9.93
2022-08-22T03:53:18.695Z,11.95
2022-08-22T03:56:09.279Z,10.02
2022-08-22T03:58:53.960Z,11.25
2022-08-22T04:01:37.582Z,10.23
2022-08-22T04:04:27.279Z,11.23
2022-08-22T04:07:27.985Z,11.45
2022-08-22T04:10:23.833Z,11.27
2022-08-22T04:13:01.470Z,12.40
2022-08-22T04:15:40.998Z,11.90
2022-08-22T04:18:24.111Z,11.95
2022-08-22T04:21:06.234Z,12.60
2022-08-22T04:23:52.260Z,12.50
2022-08-22T04:28:51.343Z,13.18
2022-08-22T04:31:27.913Z,11.63
2022-08-22T04:34:00.097Z,13.40
2022-08-22T04:36:30.406Z,12.10
2022-08-22T04:39:01.037Z,13.23
2022-08-22T04:41:33.936Z,11.38
2022-08-22T04:44:04.925Z,15.65
2022-08-22T04:46:38.889Z,10.80
2022-08-22T04:49:09.055Z,11.77
2022-08-22T04:51:39.594Z,14.25
2022-08-22T04:54:28.388Z,14.45
2022-08-22T04:57:02.748Z,12.82
2022-08-22T04:59:31.429Z,11.95
2022-08-22T05:02:06.669Z,13.02
2022-08-22T05:04:38.457Z,12.40
2022-08-22T05:07:08.818Z,13.85
2022-08-22T05:09:39.407Z,15.65
2022-08-22T05:12:12.002Z,16.42
2022-08-22T05:14:41.181Z,15.82
2022-08-22T05:17:12.148Z,18.90
2022-08-22T05:19:45.493Z,16.08
2022-08-22T05:22:16.488Z,15.63
2022-08-22T05:24:47.873Z,17.80
2022-08-22T05:27:18.231Z,15.05
2022-08-22T05:29:49.893Z,15.35
2022-08-22T05:32:24.881Z,14.85
2022-08-22T05:34:54.620Z,14.73
2022-08-22T05:37:25.343Z,13.43
2022-08-22T05:39:55.970Z,14.32
2022-08-22T05:42:26.157Z,17.00
2022-08-22T05:44:55.349Z,13.73
2022-08-22T05:47:25.483Z,14.70
2022-08-22T05:50:02.911Z,13.57
2022-08-22T05:52:40.036Z,14.55
2022-08-22T05:55:17.860Z,12.30
2022-08-22T05:57:48.902Z,15.30
2022-08-22T06:00:21.006Z,15.05
2022-08-22T06:02:58.004Z,15.18
2022-08-22T06:05:26.970Z,14.05
2022-08-22T06:07:56.355Z,15.27
2022-08-22T06:10:27.215Z,15.65
2022-08-22T06:12:58.977Z,13.95
2022-08-22T06:15:30.751Z,13.95
2022-08-22T06:18:03.468Z,14.50
2022-08-22T06:20:34.365Z,14.88
2022-08-22T06:23:03.456Z,14.70
2022-08-22T06:25:33.505Z,13.80
2022-08-22T06:28:04.484Z,15.15
2022-08-22T06:30:33.274Z,14.90
2022-08-22T06:33:03.897Z,15.77
2022-08-22T06:36:06.118Z,12.48
2022-08-22T06:38:38.414Z,13.98
2022-08-22T06:41:08.651Z,13.60
2022-08-22T06:43:38.967Z,14.95
2022-08-22T06:46:08.308Z,12.20
2022-08-22T06:48:38.313Z,13.27
2022-08-22T06:51:08.387Z,14.35
2022-08-22T06:53:38.437Z,17.02
2022-08-22T06:56:14.325Z,14.15
2022-08-22T06:58:43.758Z,14.82
2022-08-22T07:01:13.939Z,14.02
2022-08-22T07:03:46.875Z,14.48
2022-08-22T07:06:16.073Z,13.27
2022-08-22T07:08:44.713Z,12.98
2022-08-22T07:11:16.464Z,12.82
2022-08-22T07:13:45.763Z,16.27
2022-08-22T07:16:14.235Z,15.30
2022-08-22T07:18:49.926Z,13.57
2022-08-22T07:21:26.407Z,13.00
2022-08-22T07:23:55.357Z,15.20
2022-08-22T07:26:28.912Z,13.45
2022-08-22T07:28:58.585Z,11.90
2022-08-22T07:31:34.416Z,12.55
2022-08-22T07:36:35.636Z,13.35
2022-08-22T07:39:13.715Z,14.70
2022-08-22T07:41:47.379Z,14.18
2022-08-22T07:44:19.486Z,13.73
2022-08-22T07:46:53.292Z,13.00
2022-08-22T07:49:23.367Z,13.20
2022-08-22T07:51:54.251Z,13.27
2022-08-22T07:54:27.127Z,13.00
2022-08-22T07:57:04.395Z,14.15
2022-08-22T07:59:34.373Z,13.80
2022-08-22T08:02:03.340Z,15.57
2022-08-22T08:04:32.942Z,16.92
2022-08-22T08:07:08.391Z,14.35
2022-08-22T08:09:40.608Z,15.90
2022-08-22T08:12:11.430Z,13.27
2022-08-22T08:14:41.833Z,14.02
2022-08-22T08:17:14.603Z,11.95
2022-08-22T08:19:44.035Z,15.23
2022-08-22T08:22:16.488Z,14.50
2022-08-22T08:24:45.723Z,13.98
2022-08-22T08:27:32.564Z,13.50
2022-08-22T08:30:02.458Z,12.00
2022-08-22T08:32:33.672Z,12.57
2022-08-22T08:35:04.539Z,12.63
2022-08-22T08:37:37.737Z,15.02
2022-08-22T08:40:09.584Z,11.57
2022-08-22T08:42:57.839Z,12.10
2022-08-22T08:45:33.383Z,14.15
2022-08-22T08:48:08.100Z,13.32
2022-08-22T08:50:44.012Z,13.32
2022-08-22T08:53:29.664Z,13.40
2022-08-22T08:56:03.135Z,13.95
2022-08-22T08:58:48.763Z,13.20
2022-08-22T09:01:27.502Z,15.02
2022-08-22T09:04:25.868Z,11.93
2022-08-22T09:07:01.261Z,14.77
2022-08-22T09:09:37.630Z,15.63
2022-08-22T09:12:26.074Z,12.48
2022-08-22T09:15:05.492Z,12.68
2022-08-22T09:18:11.147Z,11.48
2022-08-22T09:20:48.360Z,14.27
2022-08-22T09:23:47.542Z,10.93
2022-08-22T09:26:24.047Z,13.50
2022-08-22T09:28:54.599Z,12.85
2022-08-22T09:31:47.955Z,14.13
2022-08-22T09:34:25.674Z,14.07
2022-08-22T09:37:04.526Z,12.95
2022-08-22T09:39:35.170Z,15.35
2022-08-22T09:42:08.034Z,13.65
2022-08-22T09:44:39.698Z,11.23
2022-08-22T09:47:16.111Z,12.43
2022-08-22T09:49:59.032Z,11.63
2022-08-22T09:52:42.938Z,13.38
2022-08-22T09:55:18.910Z,13.48
2022-08-22T09:58:04.658Z,11.05
2022-08-22T10:00:35.658Z,13.52
2022-08-22T10:03:13.517Z,11.52
2022-08-22T10:05:45.575Z,13.50
2022-08-22T10:08:19.766Z,14.55
2022-08-22T10:11:07.137Z,13.48
2022-08-22T10:13:40.617Z,16.85
2022-08-22T10:16:17.105Z,13.45
2022-08-22T10:18:53.905Z,12.57
2022-08-22T10:21:26.801Z,12.93
2022-08-22T10:23:56.437Z,13.30
2022-08-22T10:26:35.239Z,12.57
2022-08-22T10:29:09.046Z,11.85
2022-08-22T10:31:51.075Z,14.57
2022-08-22T10:34:32.033Z,13.90
2022-08-22T10:37:05.750Z,13.32
2022-08-22T10:39:40.309Z,12.95
2022-08-22T10:42:28.173Z,13.50
2022-08-22T10:45:04.891Z,11.88
2022-08-22T10:47:38.671Z,14.82
2022-08-22T10:50:13.777Z,11.05
2022-08-22T10:52:47.293Z,10.15
2022-08-22T10:55:18.512Z,13.68
2022-08-22T10:57:59.297Z,15.32
2022-08-22T11:00:37.186Z,12.93
2022-08-22T11:03:21.769Z,11.90
2022-08-22T11:05:57.210Z,13.45
2022-08-22T11:08:44.033Z,12.20
2022-08-22T11:11:17.930Z,10.88
2022-08-22T11:13:54.084Z,9.88
2022-08-22T11:19:15.106Z,12.35
2022-08-22T11:21:59.849Z,10.70
2022-08-22T11:24:55.913Z,12.52
2022-08-22T11:27:38.133Z,10.82
2022-08-22T11:30:11.078Z,9.05
2022-08-22T11:33:06.849Z,11.70
2022-08-22T11:35:39.154Z,9.75
2022-08-22T11:38:16.088Z,10.20
2022-08-22T11:40:46.728Z,10.18
2022-08-22T11:43:32.491Z,9.15
2022-08-22T11:46:06.788Z,9.38
2022-08-22T11:48:40.479Z,10.00
2022-08-22T11:51:17.690Z,9.98
2022-08-22T11:53:57.664Z,9.25
2022-08-22T11:56:28.602Z,10.73
2022-08-22T11:59:01.171Z,10.93
2022-08-22T12:01:34.221Z,10.60
2022-08-22T12:04:06.335Z,8.70
2022-08-22T12:06:41.799Z,9.48
2022-08-22T12:09:14.888Z,11.15
2022-08-22T12:11:52.255Z,8.10
2022-08-22T12:14:27.566Z,9.88
2022-08-22T12:17:03.659Z,7.75
2022-08-22T12:19:35.087Z,9.73
2022-08-22T12:22:17.822Z,8.65
2022-08-22T12:25:02.773Z,7.05
2022-08-22T12:27:39.917Z,8.90
2022-08-22T12:30:20.014Z,6.93
2022-08-22T12:33:03.246Z,9.45
2022-08-22T12:35:36.545Z,7.05
2022-08-22T12:38:28.402Z,9.52
2022-08-22T12:41:08.109Z,10.27
2022-08-22T12:43:42.863Z,7.40
2022-08-22T12:46:16.260Z,8.23
2022-08-22T12:48:52.276Z,9.23
2022-08-22T12:51:29.485Z,7.97
2022-08-22T12:54:13.904Z,7.70
2022-08-22T12:56:49.187Z,9.77
2022-08-22T12:59:27.534Z,7.75
2022-08-22T13:01:58.985Z,8.20
2022-08-22T13:04:33.657Z,8.93
2022-08-22T13:07:07.125Z,9.67
2022-08-22T13:09:36.464Z,10.38
2022-08-22T13:12:19.852Z,10.30
2022-08-22T13:14:50.462Z,8.85
2022-08-22T13:17:24.196Z,11.65
2022-08-22T13:19:55.890Z,7.78
2022-08-22T13:22:27.352Z,11.30
2022-08-22T13:24:59.257Z,8.38
2022-08-22T13:27:30.603Z,12.38
2022-08-22T13:30:00.842Z,10.05
2022-08-22T13:32:32.830Z,10.30
2022-08-22T13:35:01.982Z,11.40
2022-08-22T13:37:32.217Z,11.95
2022-08-22T13:40:02.811Z,12.35
2022-08-22T13:42:34.885Z,11.98
2022-08-22T13:45:13.071Z,12.60
2022-08-22T13:47:49.182Z,9.98
2022-08-22T13:50:19.286Z,11.43
2022-08-22T13:52:52.203Z,9.13
2022-08-22T13:55:31.323Z,8.55
2022-08-22T13:58:06.947Z,11.60
2022-08-22T14:01:01.075Z,8.50
2022-08-22T14:03:35.859Z,10.25
2022-08-22T14:06:36.848Z,7.95
2022-08-22T14:09:03.361Z,6.40
2022-08-22T14:11:38.861Z,8.00
2022-08-22T14:14:08.583Z,9.90
2022-08-22T14:16:39.782Z,8.48
2022-08-22T14:19:09.587Z,13.25
2022-08-22T14:21:41.329Z,6.50
2022-08-22T14:24:17.197Z,6.63
2022-08-22T14:26:58.480Z,6.30
2022-08-22T14:29:31.693Z,6.78
2022-08-22T14:32:02.533Z,7.00
2022-08-22T14:34:33.266Z,4.95
2022-08-22T14:37:04.040Z,4.82
2022-08-22T14:39:36.211Z,6.05
2022-08-22T14:42:10.157Z,4.68
2022-08-22T14:44:43.459Z,6.68
2022-08-22T14:47:54.163Z,5.47
2022-08-22T14:50:09.610Z,6.00
2022-08-22T14:52:40.938Z,7.28
2022-08-22T14:55:15.096Z,7.28
2022-08-22T14:57:46.307Z,6.93
2022-08-22T15:00:26.151Z,7.22
2022-08-22T15:03:07.207Z,7.57
2022-08-22T15:05:44.893Z,9.60
2022-08-22T15:08:13.531Z,6.82
2022-08-22T15:10:42.414Z,6.22
2022-08-22T15:13:11.329Z,6.40
2022-08-22T15:15:52.562Z,4.18
2022-08-22T15:18:34.797Z,7.50
2022-08-22T15:21:06.944Z,6.25
2022-08-22T15:23:47.046Z,5.10
2022-08-22T15:26:20.768Z,6.43
2022-08-22T15:28:55.037Z,5.65
2022-08-22T15:31:27.015Z,6.30
2022-08-22T15:34:06.262Z,6.15
2022-08-22T15:36:34.537Z,5.82
2022-08-22T15:39:18.364Z,4.57
2022-08-22T15:41:49.893Z,4.72
2022-08-22T15:44:32.525Z,4.80
2022-08-22T15:47:10.829Z,4.82
2022-08-22T15:49:50.533Z,5.10
2022-08-22T15:52:25.976Z,4.45
2022-08-22T15:55:15.515Z,7.10
2022-08-22T15:57:49.310Z,4.85
2022-08-22T16:00:28.211Z,5.30
2022-08-22T16:03:01.240Z,5.25
2022-08-22T16:05:55.465Z,5.85
2022-08-22T16:08:26.852Z,5.10
2022-08-22T16:11:12.756Z,5.32
2022-08-22T16:13:42.668Z,6.13
2022-08-22T16:16:13.799Z,5.40
2022-08-22T16:19:00.941Z,5.60
2022-08-22T16:21:54.235Z,4.15
2022-08-22T16:24:36.826Z,4.78
2022-08-22T16:27:18.566Z,5.60
2022-08-22T16:29:53.167Z,5.72
2022-08-22T16:32:24.821Z,5.43
2022-08-22T16:34:53.197Z,6.28
2022-08-22T16:37:42.456Z,6.43
2022-08-22T16:40:28.901Z,6.45
2022-08-22T16:43:16.007Z,7.10
2022-08-22T16:45:48.716Z,6.75
2022-08-22T16:48:22.932Z,5.53
2022-08-22T16:51:06.254Z,5.50
2022-08-22T16:53:54.334Z,6.15
2022-08-22T16:56:27.639Z,6.72
2022-08-22T16:59:23.125Z,7.07
2022-08-22T17:02:26.243Z,6.32
2022-08-22T17:05:04.921Z,7.75
2022-08-22T17:07:41.864Z,7.45
2022-08-22T17:10:33.321Z,7.57
2022-08-22T17:13:11.221Z,6.63
2022-08-22T17:15:52.649Z,9.52
2022-08-22T17:18:35.597Z,8.30
2022-08-22T17:21:10.517Z,6.90
2022-08-22T17:23:43.860Z,6.65
2022-08-22T17:26:19.047Z,8.25
2022-08-22T17:29:05.690Z,10.93
2022-08-22T17:31:41.985Z,9.10
2022-08-22T17:34:22.430Z,11.05
2022-08-22T17:36:56.994Z,10.60
2022-08-22T17:39:32.518Z,9.93
2022-08-22T17:42:07.698Z,11.17
2022-08-22T17:44:49.921Z,8.52
2022-08-22T17:47:27.084Z,8.17
2022-08-22T17:50:02.576Z,13.57
2022-08-22T17:52:35.278Z,9.38
2022-08-22T17:55:06.723Z,9.20
2022-08-22T17:57:38.323Z,6.10
2022-08-22T18:00:10.403Z,7.53
2022-08-22T18:02:42.655Z,6.18
2022-08-22T18:05:14.256Z,6.38
2022-08-22T18:07:59.506Z,7.28
2022-08-22T18:10:33.710Z,5.47
2022-08-22T18:13:07.499Z,6.88
2022-08-22T18:15:41.285Z,6.38
2022-08-22T18:18:16.122Z,7.22
2022-08-22T18:20:48.106Z,6.00
2022-08-22T18:23:39.330Z,6.45
2022-08-22T18:26:14.523Z,8.13
2022-08-22T18:28:46.045Z,7.07
2022-08-22T18:31:22.854Z,6.63
2022-08-22T18:33:56.184Z,9.25
2022-08-22T18:36:26.749Z,7.70
2022-08-22T18:38:57.131Z,8.32
2022-08-22T18:41:31.362Z,6.40
2022-08-22T18:44:01.581Z,7.65
2022-08-22T18:46:32.868Z,7.20
2022-08-22T18:49:19.633Z,7.53
2022-08-22T18:52:12.863Z,7.82
2022-08-22T18:54:49.247Z,6.30
2022-08-22T18:59:49.244Z,7.80
2022-08-22T19:02:38.700Z,8.68
2022-08-22T19:05:16.799Z,7.03
2022-08-22T19:07:57.735Z,7.45
2022-08-22T19:10:34.516Z,9.02
2022-08-22T19:13:14.200Z,7.35
2022-08-22T19:15:47.315Z,6.18
2022-08-22T19:18:26.770Z,6.45
2022-08-22T19:21:30.492Z,6.13
2022-08-22T19:24:00.027Z,6.60
2022-08-22T19:26:38.814Z,5.75
2022-08-22T19:29:27.315Z,6.65
2022-08-22T19:31:56.509Z,5.78
2022-08-22T19:34:36.402Z,7.68
2022-08-22T19:37:32.997Z,6.78
2022-08-22T19:40:05.094Z,7.13
2022-08-22T19:42:35.525Z,6.40
2022-08-22T19:45:05.835Z,7.38
2022-08-22T19:47:36.174Z,6.05
2022-08-22T19:50:07.833Z,7.45
2022-08-22T19:52:41.092Z,6.22
2022-08-22T19:55:15.174Z,6.63
2022-08-22T19:58:18.337Z,7.45
2022-08-22T20:07:38.162Z,7.45
2022-08-22T20:10:31.187Z,8.63
2022-08-22T20:13:07.453Z,7.63
2022-08-22T20:15:55.950Z,7.10
2022-08-22T20:19:05.482Z,8.38
2022-08-22T20:21:41.146Z,8.40
2022-08-22T20:24:11.766Z,8.38
2022-08-22T20:26:57.627Z,9.48
2022-08-22T20:29:32.127Z,7.85
2022-08-22T20:32:00.714Z,13.82
2022-08-22T20:34:30.334Z,6.50
2022-08-22T20:37:16.085Z,6.68
2022-08-22T20:39:58.748Z,8.55
2022-08-22T20:42:27.483Z,8.10
2022-08-22T20:44:59.124Z,10.43
2022-08-22T20:47:39.603Z,8.68
2022-08-22T20:50:12.040Z,9.52
2022-08-22T20:52:41.654Z,8.55
2022-08-22T20:55:16.030Z,8.20
2022-08-22T20:57:48.947Z,9.23
2022-08-22T21:00:22.123Z,8.02
2022-08-22T21:02:53.961Z,9.43
2022-08-22T21:05:23.197Z,8.77
2022-08-22T21:08:02.486Z,9.10
2022-08-22T21:10:51.454Z,8.45
2022-08-22T21:13:21.501Z,7.57
2022-08-22T21:15:52.813Z,8.95
2022-08-22T21:18:38.808Z,8.88
2022-08-22T21:23:39.123Z,8.07
2022-08-22T21:26:08.649Z,9.00
2022-08-22T21:28:38.242Z,7.47
2022-08-22T21:31:13.072Z,8.95
2022-08-22T21:33:46.958Z,9.20
2022-08-22T21:36:16.275Z,7.28
2022-08-22T21:38:48.466Z,7.78
2022-08-22T21:41:24.575Z,9.32
2022-08-22T21:43:53.941Z,7.90
2022-08-22T21:46:27.425Z,9.45
2022-08-22T21:49:00.097Z,9.68
2022-08-22T21:51:39.543Z,8.25
2022-08-22T21:54:26.042Z,9.43
2022-08-22T21:56:54.998Z,10.32
2022-08-22T21:59:25.120Z,9.40
2022-08-22T22:01:55.576Z,9.75
2022-08-22T22:04:23.981Z,9.30
2022-08-22T22:06:52.077Z,8.85
2022-08-22T22:09:20.170Z,9.10
2022-08-22T22:11:48.343Z,11.63
2022-08-22T22:14:16.415Z,8.05
2022-08-22T22:16:44.484Z,11.82
2022-08-22T22:19:14.210Z,8.48
2022-08-22T22:21:42.321Z,9.23
2022-08-22T22:24:10.486Z,7.82
2022-08-22T22:26:38.592Z,9.15
2022-08-22T22:29:07.979Z,6.97
2022-08-22T22:31:36.992Z,6.75
2022-08-22T22:34:05.241Z,7.55
2022-08-22T22:36:34.841Z,7.53
2022-08-22T22:39:06.630Z,9.90
2022-08-22T22:41:35.142Z,9.68
2022-08-22T22:44:03.458Z,10.30
2022-08-22T22:46:32.150Z,9.05
2022-08-22T22:49:00.215Z,9.80
2022-08-22T22:51:28.302Z,9.27
2022-08-22T22:53:58.211Z,9.55
2022-08-22T22:56:26.321Z,7.55
2022-08-22T22:59:00.900Z,6.85
2022-08-22T23:02:00.490Z,7.28
2022-08-22T23:04:28.778Z,8.18
2022-08-22T23:06:57.033Z,6.25
2022-08-22T23:09:38.496Z,6.97
2022-08-22T23:12:12.755Z,6.43
2022-08-22T23:14:40.922Z,6.43
2022-08-22T23:17:09.010Z,6.47
2022-08-22T23:19:38.873Z,6.63
2022-08-22T23:22:07.623Z,7.13
2022-08-22T23:24:37.717Z,7.70
2022-08-22T23:27:06.539Z,6.70
2022-08-22T23:29:34.804Z,9.02
2022-08-22T23:32:04.333Z,8.70
2022-08-22T23:34:33.707Z,5.82
2022-08-22T23:37:02.724Z,5.97
2022-08-22T23:39:35.691Z,7.22
2022-08-22T23:42:05.669Z,6.43
2022-08-22T23:44:34.967Z,8.00
2022-08-22T23:47:03.791Z,8.50
2022-08-22T23:49:31.966Z,5.90
2022-08-22T23:52:00.258Z,7.90
2022-08-22T23:54:28.344Z,5.80
2022-08-22T23:57:02.185Z,7.30
2022-08-22T23:59:34.304Z,5.80
